createdAt,value
2019-02-25T00:02:19.671Z,101756.28
2019-02-25T00:04:50.493Z,101755.87
2019-02-25T00:07:21.470Z,101747.28
2019-02-25T00:09:52.518Z,101763.70
2019-02-25T00:12:23.518Z,101763.70
2019-02-25T00:14:56.170Z,101752.08
2019-02-25T00:17:27.470Z,101752.93
2019-02-25T00:19:58.408Z,101743.84
2019-02-25T00:22:29.128Z,101739.94
2019-02-25T00:25:00.227Z,101742.84
2019-02-25T00:27:31.190Z,101747.97
2019-02-25T00:30:02.510Z,101756.16
2019-02-25T00:32:33.540Z,101750.59
2019-02-25T00:35:04.500Z,101747.57
2019-02-25T00:37:35.470Z,101747.12
2019-02-25T00:40:06.398Z,101748.01
2019-02-25T00:42:37.198Z,101742.84
2019-02-25T00:45:08.396Z,101751.92
2019-02-25T00:47:39.331Z,101749.38
2019-02-25T00:50:11.938Z,101742.08
2019-02-25T00:52:42.966Z,101737.77
2019-02-25T00:55:14.950Z,101728.20
2019-02-25T00:57:45.801Z,101737.44
2019-02-25T01:00:17.009Z,101745.43
2019-02-25T01:02:47.959Z,101748.33
2019-02-25T01:05:18.913Z,101742.64
2019-02-25T01:07:49.770Z,101745.63
2019-02-25T01:10:20.960Z,101750.83
2019-02-25T01:12:51.920Z,101744.78
2019-02-25T01:15:22.868Z,101738.20
2019-02-25T01:17:53.798Z,101725.89
2019-02-25T01:20:24.650Z,101724.87
2019-02-25T01:22:55.513Z,101736.00
2019-02-25T01:25:26.370Z,101732.09
2019-02-25T01:27:57.398Z,101711.55
2019-02-25T01:30:29.202Z,101709.69
2019-02-25T01:33:00.399Z,101697.86
2019-02-25T01:35:31.194Z,101683.19
2019-02-25T01:38:02.020Z,101680.04
2019-02-25T01:40:32.797Z,101685.16
2019-02-25T01:43:03.830Z,101672.66
2019-02-25T01:45:34.650Z,101668.39
2019-02-25T01:48:06.683Z,101673.59
2019-02-25T01:50:37.520Z,101674.26
2019-02-25T01:53:08.548Z,101679.14
2019-02-25T01:55:39.510Z,101679.27
2019-02-25T01:58:10.568Z,101690.60
2019-02-25T02:00:41.542Z,101691.81
2019-02-25T02:03:12.521Z,101694.08
2019-02-25T02:05:46.428Z,101696.34
2019-02-25T02:08:17.461Z,101703.31
2019-02-25T02:10:48.298Z,101701.70
2019-02-25T02:13:19.148Z,101685.42
2019-02-25T02:15:50.038Z,101684.37
2019-02-25T02:18:20.779Z,101670.55
2019-02-25T02:20:51.788Z,101668.19
2019-02-25T02:23:22.870Z,101667.05
2019-02-25T02:25:53.909Z,101667.60
2019-02-25T02:28:24.978Z,101665.09
2019-02-25T02:30:56.220Z,101667.34
2019-02-25T02:33:27.292Z,101674.69
2019-02-25T02:35:58.290Z,101672.58
2019-02-25T02:38:29.640Z,101676.90
2019-02-25T02:41:00.858Z,101677.30
2019-02-25T02:43:31.952Z,101682.06
2019-02-25T02:46:30.423Z,101690.63
2019-02-25T02:49:04.328Z,101681.21
2019-02-25T02:51:35.480Z,101670.52
2019-02-25T02:54:06.508Z,101674.94
2019-02-25T02:56:37.770Z,101678.52
2019-02-25T02:59:08.933Z,101673.86
2019-02-25T03:01:40.030Z,101674.37
2019-02-25T03:04:11.172Z,101669.71
2019-02-25T03:06:42.548Z,101654.62
2019-02-25T03:09:13.408Z,101664.47
2019-02-25T03:11:44.511Z,101674.70
2019-02-25T03:14:15.471Z,101669.47
2019-02-25T03:16:46.472Z,101668.66
2019-02-25T03:19:17.712Z,101675.45
2019-02-25T03:21:48.834Z,101679.25
2019-02-25T03:24:19.910Z,101671.39
2019-02-25T03:26:50.874Z,101673.84
2019-02-25T03:29:23.176Z,101670.63
2019-02-25T03:31:54.331Z,101670.87
2019-02-25T03:34:25.563Z,101666.19
2019-02-25T03:36:57.000Z,101676.75
2019-02-25T03:39:28.131Z,101679.09
2019-02-25T03:41:59.208Z,101676.23
2019-02-25T03:44:30.188Z,101677.75
2019-02-25T03:47:01.190Z,101678.39
2019-02-25T03:49:32.201Z,101676.56
2019-02-25T03:52:03.450Z,101674.43
2019-02-25T03:54:34.410Z,101671.89
2019-02-25T03:57:05.323Z,101676.08
2019-02-25T03:59:36.569Z,101668.70
2019-02-25T04:02:07.558Z,101660.07
2019-02-25T04:04:38.755Z,101652.78
2019-02-25T04:07:09.990Z,101652.55
2019-02-25T04:09:41.097Z,101656.63
2019-02-25T04:12:12.120Z,101650.31
2019-02-25T04:14:42.919Z,101652.16
2019-02-25T04:17:14.218Z,101647.05
2019-02-25T04:19:45.210Z,101657.92
2019-02-25T04:22:16.260Z,101662.25
2019-02-25T04:24:47.189Z,101659.74
2019-02-25T04:27:18.253Z,101655.91
2019-02-25T04:29:49.298Z,101657.69
2019-02-25T04:32:21.784Z,101657.28
2019-02-25T04:34:53.022Z,101661.16
2019-02-25T04:37:23.910Z,101660.71
2019-02-25T04:39:54.933Z,101662.44
2019-02-25T04:42:26.021Z,101669.34
2019-02-25T04:44:57.250Z,101662.89
2019-02-25T04:47:28.308Z,101668.53
2019-02-25T04:49:59.479Z,101658.98
2019-02-25T04:52:30.510Z,101656.77
2019-02-25T04:55:01.555Z,101651.60
2019-02-25T04:57:32.652Z,101661.07
2019-02-25T05:00:03.784Z,101658.05
2019-02-25T05:02:34.699Z,101664.17
2019-02-25T05:05:05.730Z,101664.66
2019-02-25T05:07:36.809Z,101666.44
2019-02-25T05:10:08.821Z,101658.41
2019-02-25T05:12:42.849Z,101662.76
2019-02-25T05:15:15.883Z,101666.63
2019-02-25T05:17:53.504Z,101661.10
2019-02-25T05:20:24.561Z,101655.53
2019-02-25T05:22:55.638Z,101666.34
2019-02-25T05:25:26.609Z,101664.16
2019-02-25T05:27:57.678Z,101657.34
2019-02-25T05:30:28.791Z,101658.23
2019-02-25T05:32:59.881Z,101662.51
2019-02-25T05:35:30.996Z,101664.23
2019-02-25T05:38:01.908Z,101656.83
2019-02-25T05:40:33.309Z,101655.53
2019-02-25T05:43:04.365Z,101654.72
2019-02-25T05:45:35.674Z,101659.92
2019-02-25T05:48:06.619Z,101669.41
2019-02-25T05:50:37.743Z,101663.47
2019-02-25T05:53:08.873Z,101661.85
2019-02-25T05:55:40.078Z,101673.98
2019-02-25T05:58:11.000Z,101677.13
2019-02-25T06:00:42.039Z,101688.08
2019-02-25T06:03:13.088Z,101687.89
2019-02-25T06:05:43.980Z,101695.30
2019-02-25T06:08:14.971Z,101697.11
2019-02-25T06:10:45.955Z,101703.34
2019-02-25T06:13:16.820Z,101701.47
2019-02-25T06:15:47.791Z,101692.08
2019-02-25T06:18:18.563Z,101698.71
2019-02-25T06:20:50.560Z,101699.08
2019-02-25T06:23:21.608Z,101697.76
2019-02-25T06:25:52.679Z,101693.44
2019-02-25T06:28:23.561Z,101689.16
2019-02-25T06:30:55.668Z,101679.66
2019-02-25T06:33:26.545Z,101675.38
2019-02-25T06:35:57.410Z,101674.15
2019-02-25T06:38:28.419Z,101662.58
2019-02-25T06:40:59.648Z,101661.85
2019-02-25T06:43:30.610Z,101666.09
2019-02-25T06:46:01.530Z,101666.09
2019-02-25T06:48:32.402Z,101671.91
2019-02-25T06:51:03.340Z,101669.05
2019-02-25T06:53:34.369Z,101676.59
2019-02-25T06:56:05.237Z,101679.78
2019-02-25T06:58:36.040Z,101683.81
2019-02-25T07:01:07.110Z,101674.48
2019-02-25T07:03:37.978Z,101678.93
2019-02-25T07:06:19.920Z,101669.56
2019-02-25T07:09:10.200Z,101663.63
2019-02-25T07:11:46.571Z,101663.75
2019-02-25T07:14:42.180Z,101663.00
2019-02-25T07:17:29.331Z,101663.13
2019-02-25T07:20:21.678Z,101661.09
2019-02-25T07:23:20.273Z,101659.86
2019-02-25T07:26:10.010Z,101660.33
2019-02-25T07:29:17.813Z,101661.61
2019-02-25T07:32:07.468Z,101641.68
2019-02-25T07:35:06.341Z,101647.36
2019-02-25T07:37:56.200Z,101640.09
2019-02-25T08:18:51.118Z,101656.14
2019-02-25T08:21:38.950Z,101666.59
2019-02-25T08:24:19.909Z,101674.87
2019-02-25T08:27:24.710Z,101670.14
2019-02-25T08:30:26.340Z,101676.70
2019-02-25T08:33:17.251Z,101690.58
2019-02-25T08:37:13.270Z,101689.70
2019-02-25T08:39:53.068Z,101692.77
2019-02-25T08:42:43.172Z,101686.64
2019-02-25T08:45:32.240Z,101691.83
2019-02-25T08:48:08.038Z,101689.59
2019-02-25T08:50:39.023Z,101685.33
2019-02-25T08:53:10.078Z,101670.99
2019-02-25T08:55:40.939Z,101677.91
2019-02-25T08:58:15.149Z,101666.92
2019-02-25T09:00:47.147Z,101658.84
2019-02-25T09:03:18.221Z,101662.70
2019-02-25T09:05:49.210Z,101661.47
2019-02-25T09:08:20.408Z,101656.13
2019-02-25T09:10:51.308Z,101656.31
2019-02-25T09:13:23.805Z,101657.81
2019-02-25T09:15:55.109Z,101656.75
2019-02-25T09:18:26.130Z,101660.66
2019-02-25T09:20:57.091Z,101663.13
2019-02-25T09:23:27.850Z,101671.84
2019-02-25T09:25:59.037Z,101671.25
2019-02-25T09:28:30.181Z,101662.48
2019-02-25T09:31:01.094Z,101662.45
2019-02-25T09:33:31.859Z,101657.61
2019-02-25T09:36:02.998Z,101655.67
2019-02-25T09:38:33.902Z,101650.92
2019-02-25T09:41:04.828Z,101644.28
2019-02-25T09:43:35.728Z,101639.80
2019-02-25T09:46:06.726Z,101632.25
2019-02-25T09:48:37.655Z,101639.70
2019-02-25T09:51:08.539Z,101640.28
2019-02-25T09:53:39.498Z,101648.03
2019-02-25T09:56:10.468Z,101634.07
2019-02-25T09:58:41.291Z,101630.96
2019-02-25T10:01:12.278Z,101623.83
2019-02-25T10:03:43.438Z,101621.14
2019-02-25T10:06:14.370Z,101612.24
2019-02-25T10:08:46.560Z,101621.73
2019-02-25T10:11:16.569Z,101621.14
2019-02-25T10:13:47.410Z,101615.69
2019-02-25T10:16:18.224Z,101611.83
2019-02-25T10:18:49.268Z,101611.13
2019-02-25T10:21:20.138Z,101608.58
2019-02-25T10:23:56.560Z,101612.71
2019-02-25T10:26:24.219Z,101611.40
2019-02-25T10:28:55.292Z,101605.34
2019-02-25T10:31:26.188Z,101601.75
2019-02-25T10:33:57.259Z,101606.56
2019-02-25T10:36:28.001Z,101599.32
2019-02-25T10:38:59.049Z,101597.48
2019-02-25T10:41:29.961Z,101590.70
2019-02-25T10:44:02.358Z,101587.22
2019-02-25T10:46:33.640Z,101582.14
2019-02-25T10:49:11.027Z,101582.28
2019-02-25T10:51:38.875Z,101575.64
2019-02-25T10:54:09.780Z,101582.00
2019-02-25T10:56:47.274Z,101574.66
2019-02-25T10:59:18.078Z,101569.42
2019-02-25T11:01:49.040Z,101568.73
2019-02-25T11:04:21.766Z,101560.73
2019-02-25T11:06:52.803Z,101557.86
2019-02-25T11:09:35.626Z,101571.37
2019-02-25T11:12:07.160Z,101577.03
2019-02-25T11:14:40.504Z,101565.70
2019-02-25T11:17:10.848Z,101571.74
2019-02-25T11:19:41.860Z,101566.79
2019-02-25T11:22:14.639Z,101563.64
2019-02-25T11:24:47.385Z,101559.20
2019-02-25T11:27:19.110Z,101557.36
2019-02-25T11:29:51.801Z,101566.59
2019-02-25T11:32:23.682Z,101565.03
2019-02-25T11:34:55.991Z,101560.92
2019-02-25T11:37:27.065Z,101548.80
2019-02-25T11:39:59.811Z,101531.64
2019-02-25T11:42:30.958Z,101527.79
2019-02-25T11:45:04.482Z,101521.30
2019-02-25T11:47:35.690Z,101515.95
2019-02-25T11:50:08.800Z,101514.40
2019-02-25T11:52:39.794Z,101506.61
2019-02-25T11:55:11.244Z,101505.52
2019-02-25T11:57:42.149Z,101545.87
2019-02-25T12:00:16.521Z,101490.78
2019-02-25T12:02:47.570Z,101493.54
2019-02-25T12:05:18.881Z,101486.56
2019-02-25T12:07:49.970Z,101480.31
2019-02-25T12:10:20.964Z,101480.22
2019-02-25T12:12:51.940Z,101484.23
2019-02-25T12:15:22.970Z,101483.97
2019-02-25T12:17:53.928Z,101482.02
2019-02-25T12:20:24.887Z,101484.05
2019-02-25T12:22:55.931Z,101471.58
2019-02-25T12:25:26.881Z,101472.12
2019-02-25T12:28:00.788Z,101467.84
2019-02-25T12:30:31.719Z,101468.47
2019-02-25T12:33:02.575Z,101448.32
2019-02-25T12:35:33.821Z,101468.09
2019-02-25T12:38:04.694Z,101458.23
2019-02-25T12:40:35.771Z,101460.27
2019-02-25T12:43:07.081Z,101461.52
2019-02-25T12:45:38.193Z,101464.22
2019-02-25T12:48:09.309Z,101466.67
2019-02-25T12:50:40.298Z,101467.62
2019-02-25T12:53:11.260Z,101464.83
2019-02-25T12:55:42.478Z,101468.02
2019-02-25T12:58:13.563Z,101451.89
2019-02-25T13:00:44.619Z,101433.75
2019-02-25T13:03:15.722Z,101434.00
2019-02-25T13:05:46.980Z,101430.38
2019-02-25T13:08:18.234Z,101425.10
2019-02-25T13:10:49.291Z,101419.61
2019-02-25T13:13:20.380Z,101428.42
2019-02-25T13:15:52.021Z,101436.78
2019-02-25T13:18:23.080Z,101424.51
2019-02-25T13:20:54.080Z,101432.88
2019-02-25T13:23:25.311Z,101427.84
2019-02-25T13:25:56.362Z,101430.00
2019-02-25T13:28:28.663Z,101439.64
2019-02-25T13:31:00.972Z,101447.42
2019-02-25T13:33:33.110Z,101454.16
2019-02-25T13:36:04.439Z,101446.91
2019-02-25T13:38:35.581Z,101444.20
2019-02-25T13:41:07.031Z,101434.50
2019-02-25T13:43:38.106Z,101439.12
2019-02-25T13:46:09.109Z,101440.13
2019-02-25T13:48:42.818Z,101435.20
2019-02-25T13:51:13.930Z,101422.59
2019-02-25T13:59:41.969Z,101400.88
2019-02-25T14:02:13.031Z,101387.19
2019-02-25T14:04:44.378Z,101400.61
2019-02-25T14:07:15.641Z,101395.70
2019-02-25T14:09:46.579Z,101377.59
2019-02-25T14:12:17.575Z,101379.54
2019-02-25T14:14:48.649Z,101386.72
2019-02-25T14:17:19.681Z,101391.80
2019-02-25T14:19:52.007Z,101393.13
2019-02-25T14:22:23.411Z,101393.41
2019-02-25T14:24:54.601Z,101390.03
2019-02-25T14:27:27.164Z,101393.04
2019-02-25T14:29:58.887Z,101399.94
2019-02-25T14:32:31.012Z,101400.42
2019-02-25T14:35:02.117Z,101400.27
2019-02-25T14:37:33.350Z,101391.61
2019-02-25T14:40:06.052Z,101388.84
2019-02-25T14:42:39.035Z,101385.08
2019-02-25T14:45:11.149Z,101384.20
2019-02-25T14:47:44.238Z,101378.28
2019-02-25T14:50:16.831Z,101380.19
2019-02-25T14:52:47.971Z,101390.31
2019-02-25T14:55:19.164Z,101394.22
2019-02-25T14:57:50.177Z,101390.59
2019-02-25T15:00:26.173Z,101391.17
2019-02-25T15:02:56.529Z,101408.71
2019-02-25T15:05:27.851Z,101416.23
2019-02-25T15:07:59.199Z,101416.18
2019-02-25T15:10:31.703Z,101406.72
2019-02-25T15:13:04.062Z,101407.65
2019-02-25T15:15:37.043Z,101409.39
2019-02-25T15:18:08.472Z,101409.06
2019-02-25T15:20:39.532Z,101411.33
2019-02-25T15:23:12.532Z,101407.89
2019-02-25T15:25:44.891Z,101404.89
2019-02-25T15:28:17.977Z,101402.39
2019-02-25T15:30:48.851Z,101396.00
2019-02-25T15:33:19.972Z,101399.19
2019-02-25T15:35:51.277Z,101395.40
2019-02-25T15:38:22.289Z,101392.45
2019-02-25T15:40:55.913Z,101384.70
2019-02-25T15:43:29.319Z,101383.48
2019-02-25T15:46:01.561Z,101373.97
2019-02-25T15:48:34.589Z,101370.53
2019-02-25T15:51:05.610Z,101382.78
2019-02-25T15:53:36.751Z,101395.44
2019-02-25T15:56:08.622Z,101385.52
2019-02-25T15:58:40.551Z,101381.19
2019-02-25T16:01:13.169Z,101372.13
2019-02-25T16:03:44.178Z,101379.59
2019-02-25T16:06:15.172Z,101381.46
2019-02-25T16:08:49.944Z,101377.64
2019-02-25T16:11:20.815Z,101372.94
2019-02-25T16:13:53.494Z,101382.13
2019-02-25T16:16:25.089Z,101384.33
2019-02-25T16:18:55.981Z,101377.41
2019-02-25T16:21:27.119Z,101368.80
2019-02-25T16:23:59.591Z,101366.69
2019-02-25T16:26:32.058Z,101369.83
2019-02-25T16:29:06.478Z,101368.61
2019-02-25T16:31:37.612Z,101367.42
2019-02-25T16:34:10.035Z,101362.71
2019-02-25T16:36:41.448Z,101364.07
2019-02-25T16:39:12.350Z,101357.66
2019-02-25T16:41:45.665Z,101355.53
2019-02-25T16:44:17.495Z,101361.64
2019-02-25T16:46:50.578Z,101364.70
2019-02-25T16:49:20.985Z,101354.34
2019-02-25T16:51:53.176Z,101352.20
2019-02-25T16:54:25.310Z,101351.81
2019-02-25T16:56:56.348Z,101357.09
2019-02-25T16:59:27.845Z,101350.61
2019-02-25T17:02:00.018Z,101342.39
2019-02-25T17:04:31.898Z,101337.16
2019-02-25T17:07:03.425Z,101330.23
2019-02-25T17:09:36.379Z,101332.86
2019-02-25T17:12:08.896Z,101331.56
2019-02-25T17:14:41.361Z,101335.91
2019-02-25T17:17:12.386Z,101342.89
2019-02-25T17:19:43.560Z,101345.93
2019-02-25T17:22:18.919Z,101344.64
2019-02-25T17:24:54.262Z,101350.28
2019-02-25T17:27:26.182Z,101349.88
2019-02-25T17:29:57.787Z,101356.79
2019-02-25T17:32:30.141Z,101366.75
2019-02-25T17:35:02.952Z,101378.02
2019-02-25T17:37:35.558Z,101384.51
2019-02-25T17:40:08.626Z,101380.61
2019-02-25T17:42:39.871Z,101365.42
2019-02-25T17:45:13.551Z,101365.88
2019-02-25T17:47:44.615Z,101366.72
2019-02-25T17:50:18.329Z,101362.41
2019-02-25T17:52:50.370Z,101358.94
2019-02-25T17:55:22.472Z,101344.67
2019-02-25T17:57:54.335Z,101347.27
2019-02-25T18:00:36.763Z,101355.47
2019-02-25T18:03:07.780Z,101350.69
2019-02-25T18:05:40.560Z,101352.43
2019-02-25T18:08:15.123Z,101352.43
2019-02-25T18:10:45.570Z,101351.11
2019-02-25T18:13:17.900Z,101353.70
2019-02-25T18:15:53.725Z,101358.03
2019-02-25T18:18:28.390Z,101353.67
2019-02-25T18:20:59.338Z,101348.45
2019-02-25T18:23:30.351Z,101347.13
2019-02-25T18:26:02.408Z,101347.60
2019-02-25T18:28:34.862Z,101346.73
2019-02-25T18:31:09.650Z,101359.28
2019-02-25T18:33:41.665Z,101360.16
2019-02-25T18:36:12.846Z,101366.21
2019-02-25T18:38:44.641Z,101363.61
2019-02-25T18:41:16.483Z,101364.03
2019-02-25T18:43:49.219Z,101363.59
2019-02-25T18:46:21.243Z,101356.65
2019-02-25T18:48:53.009Z,101354.05
2019-02-25T18:51:24.644Z,101352.72
2019-02-25T18:53:57.637Z,101346.65
2019-02-25T18:56:29.371Z,101349.23
2019-02-25T18:59:08.157Z,101344.52
2019-02-25T19:01:33.381Z,101345.34
2019-02-25T19:04:04.313Z,101345.78
2019-02-25T19:06:37.224Z,101335.83
2019-02-25T19:09:12.252Z,101331.50
2019-02-25T19:11:42.845Z,101332.77
2019-02-25T19:14:15.370Z,101335.80
2019-02-25T19:16:46.892Z,101337.95
2019-02-25T19:19:19.254Z,101333.19
2019-02-25T19:21:52.031Z,101340.50
2019-02-25T19:24:23.068Z,101327.09
2019-02-25T19:26:54.189Z,101327.09
2019-02-25T19:29:26.050Z,101324.48
2019-02-25T19:32:00.691Z,101314.09
2019-02-25T19:34:30.644Z,101321.02
2019-02-25T19:37:02.853Z,101329.68
2019-02-25T19:39:35.415Z,101328.83
2019-02-25T19:42:07.021Z,101326.25
2019-02-25T19:44:38.573Z,101337.89
2019-02-25T19:47:10.274Z,101339.66
2019-02-25T19:49:43.629Z,101346.13
2019-02-25T19:52:16.792Z,101346.98
2019-02-25T19:54:48.882Z,101335.77
2019-02-25T19:57:21.647Z,101340.51
2019-02-25T19:59:55.456Z,101333.16
2019-02-25T20:02:27.210Z,101333.19
2019-02-25T20:04:58.879Z,101323.23
2019-02-25T20:07:31.458Z,101322.38
2019-02-25T20:10:03.014Z,101322.38
2019-02-25T20:12:36.340Z,101311.13
2019-02-25T20:15:11.127Z,101308.58
2019-02-25T20:17:44.103Z,101313.31
2019-02-25T20:20:15.140Z,101313.27
2019-02-25T20:22:48.228Z,101312.83
2019-02-25T20:25:21.781Z,101305.50
2019-02-25T20:30:35.502Z,101288.21
2019-02-25T20:33:08.619Z,101291.21
2019-02-25T20:35:44.945Z,101288.20
2019-02-25T20:38:16.228Z,101295.52
2019-02-25T20:40:50.808Z,101294.22
2019-02-25T20:43:21.828Z,101282.13
2019-02-25T20:45:54.659Z,101290.31
2019-02-25T20:48:27.497Z,101291.19
2019-02-25T20:51:00.288Z,101298.13
2019-02-25T20:53:32.250Z,101298.14
2019-02-25T20:56:04.322Z,101296.82
2019-02-25T20:58:36.136Z,101289.91
2019-02-25T21:01:09.805Z,101280.84
2019-02-25T21:03:43.825Z,101273.08
2019-02-25T21:06:14.510Z,101264.44
2019-02-25T21:08:46.652Z,101266.61
2019-02-25T21:11:17.791Z,101267.45
2019-02-25T21:13:48.858Z,101271.34
2019-02-25T21:16:20.009Z,101267.05
2019-02-25T21:18:52.944Z,101269.62
2019-02-25T21:21:23.420Z,101270.48
2019-02-25T21:23:54.611Z,101260.56
2019-02-25T21:26:29.267Z,101260.14
2019-02-25T21:29:00.178Z,101248.46
2019-02-25T21:31:31.100Z,101247.59
2019-02-25T21:34:02.147Z,101248.46
2019-02-25T21:36:33.863Z,101243.28
2019-02-25T21:39:08.307Z,101238.50
2019-02-25T21:41:41.808Z,101240.65
2019-02-25T21:44:16.670Z,101235.86
2019-02-25T21:46:49.776Z,101238.86
2019-02-25T21:49:20.261Z,101231.47
2019-02-25T21:51:52.518Z,101222.80
2019-02-25T21:54:24.056Z,101221.51
2019-02-25T21:56:55.070Z,101220.22
2019-02-25T21:59:26.000Z,101216.31
2019-02-25T22:01:57.792Z,101198.57
2019-02-25T22:04:29.898Z,101193.75
2019-02-25T22:07:02.556Z,101192.41
2019-02-25T22:09:36.922Z,101185.44
2019-02-25T22:12:07.630Z,101177.17
2019-02-25T22:14:41.224Z,101159.86
2019-02-25T22:17:12.959Z,101149.45
2019-02-25T22:22:11.908Z,101176.09
2019-02-25T22:24:42.863Z,101163.50
2019-02-25T22:27:14.492Z,101164.31
2019-02-25T22:29:46.579Z,101162.95
2019-02-25T22:32:17.648Z,101158.16
2019-02-25T22:34:48.710Z,101138.28
2019-02-25T22:37:22.040Z,101146.45
2019-02-25T22:39:54.532Z,101151.58
2019-02-25T22:42:26.939Z,101154.59
2019-02-25T22:44:57.760Z,101149.81
2019-02-25T22:47:28.699Z,101158.85
2019-02-25T22:49:59.773Z,101155.81
2019-02-25T22:52:31.531Z,101147.20
2019-02-25T22:55:05.971Z,101136.39
2019-02-25T22:57:36.108Z,101126.45
2019-02-25T23:00:22.696Z,101131.57
2019-02-25T23:02:56.835Z,101145.35
2019-02-25T23:05:27.740Z,101135.43
2019-02-25T23:07:58.623Z,101115.19
2019-02-25T23:10:29.058Z,101104.86
2019-02-25T23:12:59.817Z,101094.52
2019-02-25T23:15:30.611Z,101090.64
2019-02-25T23:18:05.378Z,101088.51
2019-02-25T23:20:34.106Z,101094.98
2019-02-25T23:23:06.670Z,101095.38
2019-02-25T23:25:37.553Z,101098.78
2019-02-25T23:28:08.588Z,101107.83
2019-02-25T23:30:39.808Z,101121.59
2019-02-25T23:33:11.997Z,101103.00
2019-02-25T23:35:46.587Z,101099.53
2019-02-25T23:38:16.428Z,101108.14
2019-02-25T23:40:47.362Z,101102.55
2019-02-25T23:43:18.944Z,101102.58
2019-02-25T23:45:49.927Z,101093.61
2019-02-25T23:48:21.024Z,101089.29
2019-02-25T23:50:54.922Z,101087.13
2019-02-25T23:53:28.325Z,101083.59
2019-02-25T23:55:58.922Z,101089.59
2019-02-25T23:58:30.152Z,101086.55
